createdAt,value
2019-03-26T00:03:10.241Z,4.20
2019-03-26T00:08:15.508Z,3.80
2019-03-26T00:13:20.751Z,4.27
2019-03-26T00:18:26.052Z,3.93
2019-03-26T00:23:31.418Z,4.70
2019-03-26T00:28:37.236Z,4.93
2019-03-26T00:33:42.545Z,4.73
2019-03-26T00:38:47.963Z,5.60
2019-03-26T00:43:53.386Z,4.87
2019-03-26T00:48:59.559Z,4.63
2019-03-26T00:54:05.102Z,4.93
2019-03-26T00:59:11.465Z,4.87
2019-03-26T01:04:16.700Z,5.10
2019-03-26T01:09:21.979Z,4.70
2019-03-26T01:14:27.247Z,4.87
2019-03-26T01:19:32.753Z,4.77
2019-03-26T01:24:38.000Z,5.20
2019-03-26T01:29:44.236Z,5.00
2019-03-26T01:34:49.444Z,5.10
2019-03-26T01:39:54.684Z,4.97
2019-03-26T01:44:59.886Z,4.90
2019-03-26T01:50:05.616Z,4.97
2019-03-26T01:55:11.058Z,5.10
2019-03-26T02:00:17.135Z,4.93
2019-03-26T02:05:22.332Z,5.20
2019-03-26T02:10:27.550Z,4.77
2019-03-26T02:15:33.570Z,5.00
2019-03-26T02:20:38.874Z,4.97
2019-03-26T02:25:45.034Z,5.00
2019-03-26T02:30:50.357Z,4.97
2019-03-26T02:35:55.693Z,5.20
2019-03-26T02:41:01.037Z,5.30
2019-03-26T02:46:07.342Z,5.30
2019-03-26T02:51:12.627Z,5.22
2019-03-26T02:56:17.874Z,5.33
2019-03-26T03:01:23.664Z,5.07
2019-03-26T03:06:28.962Z,5.03
2019-03-26T03:11:34.393Z,4.70
2019-03-26T03:16:39.642Z,4.47
2019-03-26T03:21:45.183Z,4.17
2019-03-26T03:26:50.680Z,4.47
2019-03-26T03:31:55.882Z,4.20
2019-03-26T03:37:01.143Z,4.27
2019-03-26T03:42:06.429Z,3.67
2019-03-26T03:47:13.517Z,3.40
2019-03-26T03:52:20.577Z,3.50
2019-03-26T03:57:28.646Z,3.33
2019-03-26T04:02:33.969Z,3.80
2019-03-26T04:07:39.317Z,2.97
2019-03-26T04:12:44.664Z,2.97
2019-03-26T04:17:49.908Z,3.57
2019-03-26T04:22:55.290Z,3.67
2019-03-26T04:28:00.619Z,3.60
2019-03-26T04:33:05.927Z,3.60
2019-03-26T04:38:11.248Z,3.93
2019-03-26T04:43:18.985Z,3.70
2019-03-26T04:48:23.494Z,4.10
2019-03-26T04:53:28.718Z,3.73
2019-03-26T04:58:33.950Z,4.33
2019-03-26T05:03:39.145Z,4.47
2019-03-26T05:08:44.696Z,4.90
2019-03-26T05:13:50.084Z,5.00
2019-03-26T05:18:55.860Z,5.80
2019-03-26T05:24:02.871Z,5.17
2019-03-26T05:29:08.257Z,6.27
2019-03-26T05:34:13.485Z,5.80
2019-03-26T05:39:18.919Z,5.63
2019-03-26T05:44:25.336Z,6.43
2019-03-26T05:49:30.809Z,7.00
2019-03-26T05:54:36.240Z,6.60
2019-03-26T05:59:41.691Z,6.57
2019-03-26T06:04:47.068Z,7.00
2019-03-26T06:09:52.457Z,6.47
2019-03-26T06:14:58.026Z,6.60
2019-03-26T06:20:03.730Z,5.33
2019-03-26T06:25:10.664Z,5.40
2019-03-26T06:30:16.373Z,5.50
2019-03-26T06:35:21.789Z,5.33
2019-03-26T06:40:27.363Z,5.43
2019-03-26T06:45:32.842Z,5.77
2019-03-26T06:50:38.285Z,5.23
2019-03-26T06:55:43.685Z,5.63
2019-03-26T07:00:49.170Z,4.63
2019-03-26T07:05:54.461Z,4.70
2019-03-26T07:10:59.699Z,5.17
2019-03-26T07:16:04.952Z,4.10
2019-03-26T07:21:10.214Z,3.47
2019-03-26T07:26:15.546Z,3.93
2019-03-26T07:31:21.087Z,3.77
2019-03-26T07:36:26.251Z,3.20
2019-03-26T07:41:31.458Z,3.37
2019-03-26T07:46:36.941Z,3.60
2019-03-26T07:51:43.469Z,3.40
2019-03-26T07:56:48.878Z,2.80
2019-03-26T08:01:54.462Z,3.30
2019-03-26T08:07:00.951Z,3.60
2019-03-26T08:12:06.505Z,3.07
2019-03-26T08:17:12.039Z,2.60
2019-03-26T08:22:17.641Z,2.67
2019-03-26T08:27:23.042Z,2.58
2019-03-26T08:32:28.909Z,2.33
2019-03-26T08:37:35.154Z,3.07
2019-03-26T08:42:40.427Z,1.77
2019-03-26T08:47:45.868Z,2.30
2019-03-26T08:52:51.304Z,2.13
2019-03-26T08:57:56.673Z,1.50
2019-03-26T09:03:02.131Z,2.13
2019-03-26T09:08:07.518Z,2.03
2019-03-26T09:13:12.736Z,1.83
2019-03-26T09:18:18.307Z,2.40
2019-03-26T09:23:23.522Z,2.17
2019-03-26T09:28:28.726Z,2.13
2019-03-26T09:33:33.997Z,2.20
2019-03-26T09:38:39.558Z,2.10
2019-03-26T09:43:45.893Z,2.00
2019-03-26T09:48:52.108Z,1.63
2019-03-26T09:53:57.376Z,1.73
2019-03-26T09:59:02.582Z,1.57
2019-03-26T10:04:07.795Z,1.30
2019-03-26T10:09:13.254Z,1.80
2019-03-26T10:14:18.929Z,2.10
2019-03-26T10:19:24.469Z,2.03
2019-03-26T10:24:29.873Z,1.83
2019-03-26T10:29:35.311Z,1.60
2019-03-26T10:34:48.519Z,2.20
2019-03-26T10:39:54.509Z,1.73
2019-03-26T10:44:59.789Z,2.13
2019-03-26T10:50:05.296Z,1.90
2019-03-26T10:55:10.728Z,1.97
2019-03-26T11:00:16.696Z,1.97
2019-03-26T11:05:22.061Z,2.07
2019-03-26T11:10:27.305Z,2.30
2019-03-26T11:15:32.841Z,1.83
2019-03-26T11:20:38.110Z,1.77
2019-03-26T11:25:43.446Z,2.17
2019-03-26T11:30:48.845Z,1.80
2019-03-26T11:35:54.254Z,2.20
2019-03-26T11:40:59.703Z,2.27
2019-03-26T11:46:05.474Z,1.70
2019-03-26T11:51:10.880Z,1.80
2019-03-26T11:56:29.417Z,1.97
2019-03-26T12:01:35.346Z,2.20
2019-03-26T12:06:40.760Z,1.83
2019-03-26T12:11:46.108Z,2.10
2019-03-26T12:16:51.304Z,2.20
2019-03-26T12:21:56.766Z,2.30
2019-03-26T12:27:01.987Z,2.70
2019-03-26T12:32:07.348Z,2.50
2019-03-26T12:37:12.973Z,2.80
2019-03-26T12:42:18.287Z,2.70
2019-03-26T12:47:23.684Z,2.20
2019-03-26T12:52:28.957Z,2.60
2019-03-26T12:57:34.302Z,2.90
2019-03-26T13:02:39.835Z,1.80
2019-03-26T13:07:45.233Z,1.70
2019-03-26T13:12:50.587Z,1.83
2019-03-26T13:17:56.067Z,2.00
2019-03-26T13:23:01.372Z,1.80
2019-03-26T13:28:06.822Z,2.03
2019-03-26T13:33:12.203Z,2.00
2019-03-26T13:38:17.442Z,2.40
2019-03-26T13:43:22.764Z,1.60
2019-03-26T13:48:27.981Z,2.70
2019-03-26T13:53:33.217Z,2.10
2019-03-26T13:58:38.438Z,1.90
2019-03-26T14:03:43.765Z,2.00
2019-03-26T14:08:51.321Z,1.90
2019-03-26T14:13:56.588Z,1.70
2019-03-26T14:19:07.703Z,2.13
2019-03-26T14:24:13.587Z,2.27
2019-03-26T14:29:18.956Z,1.40
2019-03-26T14:34:24.186Z,1.40
2019-03-26T14:39:29.416Z,1.60
2019-03-26T14:44:34.798Z,1.50
2019-03-26T14:49:40.261Z,2.13
2019-03-26T14:54:45.858Z,1.80
2019-03-26T14:59:51.292Z,1.93
2019-03-26T15:04:57.513Z,1.80
2019-03-26T15:10:03.014Z,1.60
2019-03-26T15:15:08.630Z,1.70
2019-03-26T15:20:14.094Z,1.77
2019-03-26T15:25:19.396Z,1.70
2019-03-26T15:30:24.665Z,1.75
2019-03-26T15:35:29.992Z,1.63
2019-03-26T15:40:35.296Z,1.57
2019-03-26T15:45:40.607Z,1.80
2019-03-26T15:50:47.296Z,1.20
2019-03-26T15:55:52.805Z,1.60
2019-03-26T16:00:58.369Z,1.30
2019-03-26T16:06:03.829Z,1.30
2019-03-26T16:11:09.055Z,1.50
2019-03-26T16:16:14.279Z,2.20
2019-03-26T16:21:19.725Z,1.60
2019-03-26T16:26:25.228Z,1.50
2019-03-26T16:31:30.403Z,1.50
2019-03-26T16:36:35.755Z,1.40
2019-03-26T16:41:48.835Z,1.43
2019-03-26T16:46:48.084Z,1.30
2019-03-26T16:51:53.723Z,1.10
2019-03-26T16:56:59.048Z,1.37
2019-03-26T17:02:05.124Z,1.13
2019-03-26T17:07:10.400Z,1.40
2019-03-26T17:12:15.658Z,1.50
2019-03-26T17:17:20.905Z,1.30
2019-03-26T17:22:26.241Z,1.50
2019-03-26T17:27:31.553Z,1.40
2019-03-26T17:32:37.215Z,1.50
2019-03-26T17:37:43.504Z,1.40
2019-03-26T17:42:48.778Z,1.50
2019-03-26T17:47:54.004Z,1.27
2019-03-26T17:53:00.244Z,1.50
2019-03-26T17:58:05.551Z,1.43
2019-03-26T18:03:10.962Z,1.47
2019-03-26T18:08:16.268Z,1.60
2019-03-26T18:13:21.464Z,1.70
2019-03-26T18:18:26.784Z,1.43
2019-03-26T18:23:32.136Z,1.70
2019-03-26T18:28:37.371Z,1.33
2019-03-26T18:33:42.898Z,1.43
2019-03-26T18:38:48.192Z,1.60
2019-03-26T18:43:53.422Z,1.60
2019-03-26T18:48:58.986Z,1.57
2019-03-26T18:54:05.145Z,1.47
2019-03-26T18:59:10.439Z,1.73
2019-03-26T19:04:15.800Z,1.73
2019-03-26T19:09:21.028Z,1.50
2019-03-26T19:14:26.305Z,1.67
2019-03-26T19:19:31.966Z,1.80
2019-03-26T19:24:37.213Z,1.70
2019-03-26T19:29:42.491Z,2.40
2019-03-26T19:34:47.775Z,2.00
2019-03-26T19:39:53.009Z,1.80
2019-03-26T19:44:58.232Z,1.60
2019-03-26T19:50:03.632Z,1.70
2019-03-26T19:55:09.503Z,1.70
2019-03-26T20:00:16.218Z,1.52
2019-03-26T20:10:52.467Z,1.50
2019-03-26T20:15:57.725Z,1.67
2019-03-26T20:21:03.101Z,1.80
2019-03-26T20:26:08.414Z,1.73
2019-03-26T20:31:13.659Z,2.13
2019-03-26T20:36:18.875Z,1.70
2019-03-26T20:41:24.203Z,1.70
2019-03-26T20:46:29.598Z,1.63
2019-03-26T20:51:34.860Z,1.50
2019-03-26T20:56:41.630Z,1.73
2019-03-26T21:01:46.893Z,1.50
2019-03-26T21:06:52.155Z,1.63
2019-03-26T21:11:57.608Z,2.30
2019-03-26T21:17:02.825Z,2.03
2019-03-26T21:22:09.126Z,1.70
2019-03-26T21:27:14.821Z,1.60
2019-03-26T21:32:20.045Z,1.73
2019-03-26T21:37:25.483Z,1.70
2019-03-26T21:42:30.989Z,1.77
2019-03-26T21:47:36.380Z,1.83
2019-03-26T21:52:41.558Z,2.10
2019-03-26T21:57:46.987Z,2.27
2019-03-26T22:02:52.487Z,1.70
2019-03-26T22:07:58.198Z,2.40
2019-03-26T22:13:03.553Z,1.93
2019-03-26T22:18:08.884Z,2.13
2019-03-26T22:23:14.199Z,1.83
2019-03-26T22:28:19.504Z,1.87
2019-03-26T22:33:24.883Z,1.83
2019-03-26T22:38:30.256Z,1.80
2019-03-26T22:43:35.507Z,2.03
2019-03-26T22:48:41.055Z,2.60
2019-03-26T22:53:46.489Z,2.50
2019-03-26T22:58:51.851Z,2.27
2019-03-26T23:03:57.313Z,2.37
2019-03-26T23:09:02.570Z,2.07
2019-03-26T23:14:09.487Z,2.60
2019-03-26T23:19:14.915Z,3.07
2019-03-26T23:24:21.237Z,2.70
2019-03-26T23:29:26.531Z,2.60
2019-03-26T23:34:31.886Z,2.30
2019-03-26T23:39:37.498Z,2.60
2019-03-26T23:44:42.863Z,2.70
2019-03-26T23:49:48.220Z,2.63
2019-03-26T23:54:53.958Z,2.80
2019-03-26T23:59:59.485Z,2.23
